sensor_id;sensor_type;location;lat;lon;timestamp;P1;durP1;ratioP1;P2;durP2;ratioP2
62911;SDS011;49111;51.028;4.218;2024-02-14T00:00:07;6.55;;;3.88;;
62911;SDS011;49111;51.028;4.218;2024-02-14T00:02:48;7.50;;;4.18;;
62911;SDS011;49111;51.028;4.218;2024-02-14T00:05:17;7.32;;;4.40;;
62911;SDS011;49111;51.028;4.218;2024-02-14T00:07:43;6.68;;;3.85;;
62911;SDS011;49111;51.028;4.218;2024-02-14T00:10:10;7.53;;;4.45;;
62911;SDS011;49111;51.028;4.218;2024-02-14T00:12:36;9.43;;;4.03;;
62911;SDS011;49111;51.028;4.218;2024-02-14T00:15:03;6.78;;;3.90;;
62911;SDS011;49111;51.028;4.218;2024-02-14T00:17:31;6.18;;;4.32;;
62911;SDS011;49111;51.028;4.218;2024-02-14T00:19:57;9.23;;;3.83;;
62911;SDS011;49111;51.028;4.218;2024-02-14T00:22:23;9.93;;;4.18;;
62911;SDS011;49111;51.028;4.218;2024-02-14T00:24:49;8.95;;;3.88;;
62911;SDS011;49111;51.028;4.218;2024-02-14T00:27:15;8.30;;;4.47;;
62911;SDS011;49111;51.028;4.218;2024-02-14T00:29:42;7.38;;;4.13;;
62911;SDS011;49111;51.028;4.218;2024-02-14T00:32:11;8.25;;;4.68;;
62911;SDS011;49111;51.028;4.218;2024-02-14T00:34:40;9.00;;;3.70;;
62911;SDS011;49111;51.028;4.218;2024-02-14T00:37:06;8.68;;;4.18;;
62911;SDS011;49111;51.028;4.218;2024-02-14T00:39:32;7.65;;;4.00;;
62911;SDS011;49111;51.028;4.218;2024-02-14T00:41:57;14.45;;;4.88;;
62911;SDS011;49111;51.028;4.218;2024-02-14T00:44:24;7.03;;;4.07;;
62911;SDS011;49111;51.028;4.218;2024-02-14T00:46:55;8.32;;;3.88;;
62911;SDS011;49111;51.028;4.218;2024-02-14T00:49:24;7.18;;;3.92;;
62911;SDS011;49111;51.028;4.218;2024-02-14T00:51:50;6.88;;;4.00;;
62911;SDS011;49111;51.028;4.218;2024-02-14T00:54:16;6.68;;;4.25;;
62911;SDS011;49111;51.028;4.218;2024-02-14T00:56:45;8.45;;;4.07;;
62911;SDS011;49111;51.028;4.218;2024-02-14T00:59:10;6.60;;;3.88;;
62911;SDS011;49111;51.028;4.218;2024-02-14T01:01:38;8.40;;;4.00;;
62911;SDS011;49111;51.028;4.218;2024-02-14T01:04:04;7.63;;;3.65;;
62911;SDS011;49111;51.028;4.218;2024-02-14T01:06:31;5.97;;;3.97;;
62911;SDS011;49111;51.028;4.218;2024-02-14T01:08:56;8.25;;;3.85;;
62911;SDS011;49111;51.028;4.218;2024-02-14T01:11:22;6.80;;;3.75;;
62911;SDS011;49111;51.028;4.218;2024-02-14T01:13:48;7.03;;;3.65;;
62911;SDS011;49111;51.028;4.218;2024-02-14T01:16:14;6.72;;;4.00;;
62911;SDS011;49111;51.028;4.218;2024-02-14T01:18:40;7.65;;;4.15;;
62911;SDS011;49111;51.028;4.218;2024-02-14T01:21:06;7.18;;;4.35;;
62911;SDS011;49111;51.028;4.218;2024-02-14T01:23:32;6.53;;;4.40;;
62911;SDS011;49111;51.028;4.218;2024-02-14T01:25:58;9.82;;;4.57;;
62911;SDS011;49111;51.028;4.218;2024-02-14T01:28:24;12.13;;;4.55;;
62911;SDS011;49111;51.028;4.218;2024-02-14T01:30:53;5.93;;;3.60;;
62911;SDS011;49111;51.028;4.218;2024-02-14T01:33:19;7.18;;;3.85;;
62911;SDS011;49111;51.028;4.218;2024-02-14T01:35:44;7.45;;;4.15;;
62911;SDS011;49111;51.028;4.218;2024-02-14T01:38:10;6.97;;;4.35;;
62911;SDS011;49111;51.028;4.218;2024-02-14T01:40:38;8.27;;;4.63;;
62911;SDS011;49111;51.028;4.218;2024-02-14T01:43:07;7.47;;;4.63;;
62911;SDS011;49111;51.028;4.218;2024-02-14T01:45:34;8.45;;;4.20;;
62911;SDS011;49111;51.028;4.218;2024-02-14T01:48:00;7.22;;;4.85;;
62911;SDS011;49111;51.028;4.218;2024-02-14T01:50:27;6.38;;;4.13;;
62911;SDS011;49111;51.028;4.218;2024-02-14T01:52:59;6.75;;;4.03;;
62911;SDS011;49111;51.028;4.218;2024-02-14T01:55:27;10.55;;;4.43;;
62911;SDS011;49111;51.028;4.218;2024-02-14T01:57:54;10.63;;;5.03;;
62911;SDS011;49111;51.028;4.218;2024-02-14T02:00:20;9.27;;;5.53;;
62911;SDS011;49111;51.028;4.218;2024-02-14T02:02:46;7.50;;;4.85;;
62911;SDS011;49111;51.028;4.218;2024-02-14T02:05:17;7.88;;;4.50;;
62911;SDS011;49111;51.028;4.218;2024-02-14T02:07:44;8.38;;;5.13;;
62911;SDS011;49111;51.028;4.218;2024-02-14T02:10:13;7.63;;;5.03;;
62911;SDS011;49111;51.028;4.218;2024-02-14T02:12:39;8.80;;;5.35;;
62911;SDS011;49111;51.028;4.218;2024-02-14T02:15:06;9.02;;;4.95;;
62911;SDS011;49111;51.028;4.218;2024-02-14T02:17:32;7.10;;;4.40;;
62911;SDS011;49111;51.028;4.218;2024-02-14T02:20:01;9.82;;;4.95;;
62911;SDS011;49111;51.028;4.218;2024-02-14T02:22:27;9.38;;;4.88;;
62911;SDS011;49111;51.028;4.218;2024-02-14T02:25:03;7.70;;;4.35;;
62911;SDS011;49111;51.028;4.218;2024-02-14T02:27:33;8.82;;;4.57;;
62911;SDS011;49111;51.028;4.218;2024-02-14T02:30:03;7.72;;;4.70;;
62911;SDS011;49111;51.028;4.218;2024-02-14T02:32:33;7.28;;;4.38;;
62911;SDS011;49111;51.028;4.218;2024-02-14T02:35:01;8.80;;;5.00;;
62911;SDS011;49111;51.028;4.218;2024-02-14T02:37:27;11.73;;;6.38;;
62911;SDS011;49111;51.028;4.218;2024-02-14T02:39:55;9.90;;;5.03;;
62911;SDS011;49111;51.028;4.218;2024-02-14T02:42:22;8.77;;;4.90;;
62911;SDS011;49111;51.028;4.218;2024-02-14T02:44:49;11.43;;;5.68;;
62911;SDS011;49111;51.028;4.218;2024-02-14T02:47:18;9.80;;;5.18;;
62911;SDS011;49111;51.028;4.218;2024-02-14T02:49:44;10.63;;;5.05;;
62911;SDS011;49111;51.028;4.218;2024-02-14T02:52:11;8.25;;;5.10;;
62911;SDS011;49111;51.028;4.218;2024-02-14T02:54:37;8.30;;;5.05;;
62911;SDS011;49111;51.028;4.218;2024-02-14T02:57:09;9.63;;;6.28;;
62911;SDS011;49111;51.028;4.218;2024-02-14T02:59:35;8.02;;;5.32;;
62911;SDS011;49111;51.028;4.218;2024-02-14T03:02:02;8.30;;;5.18;;
62911;SDS011;49111;51.028;4.218;2024-02-14T03:04:28;9.63;;;5.63;;
62911;SDS011;49111;51.028;4.218;2024-02-14T03:06:57;7.90;;;4.93;;
62911;SDS011;49111;51.028;4.218;2024-02-14T03:09:24;11.98;;;5.90;;
62911;SDS011;49111;51.028;4.218;2024-02-14T03:11:51;9.88;;;5.90;;
62911;SDS011;49111;51.028;4.218;2024-02-14T03:14:17;11.75;;;6.20;;
62911;SDS011;49111;51.028;4.218;2024-02-14T03:16:43;10.20;;;5.70;;
62911;SDS011;49111;51.028;4.218;2024-02-14T03:19:09;10.40;;;5.93;;
62911;SDS011;49111;51.028;4.218;2024-02-14T03:21:35;8.73;;;5.50;;
62911;SDS011;49111;51.028;4.218;2024-02-14T03:24:01;11.98;;;6.32;;
62911;SDS011;49111;51.028;4.218;2024-02-14T03:26:30;10.52;;;6.43;;
62911;SDS011;49111;51.028;4.218;2024-02-14T03:29:00;9.00;;;5.65;;
62911;SDS011;49111;51.028;4.218;2024-02-14T03:31:26;13.93;;;6.47;;
62911;SDS011;49111;51.028;4.218;2024-02-14T03:33:52;10.88;;;5.53;;
62911;SDS011;49111;51.028;4.218;2024-02-14T03:36:19;9.43;;;5.30;;
62911;SDS011;49111;51.028;4.218;2024-02-14T03:38:45;13.40;;;7.03;;
62911;SDS011;49111;51.028;4.218;2024-02-14T03:41:12;11.30;;;5.65;;
62911;SDS011;49111;51.028;4.218;2024-02-14T03:43:40;11.27;;;5.88;;
62911;SDS011;49111;51.028;4.218;2024-02-14T03:46:06;11.02;;;5.97;;
62911;SDS011;49111;51.028;4.218;2024-02-14T03:48:32;10.30;;;6.45;;
62911;SDS011;49111;51.028;4.218;2024-02-14T03:50:59;9.48;;;5.70;;
62911;SDS011;49111;51.028;4.218;2024-02-14T03:53:25;11.18;;;5.97;;
62911;SDS011;49111;51.028;4.218;2024-02-14T03:55:51;10.18;;;5.35;;
62911;SDS011;49111;51.028;4.218;2024-02-14T03:58:18;11.70;;;6.13;;
62911;SDS011;49111;51.028;4.218;2024-02-14T04:00:49;9.45;;;6.15;;
62911;SDS011;49111;51.028;4.218;2024-02-14T04:03:16;10.07;;;5.43;;
62911;SDS011;49111;51.028;4.218;2024-02-14T04:05:42;12.40;;;6.07;;
62911;SDS011;49111;51.028;4.218;2024-02-14T04:08:07;9.85;;;5.53;;
62911;SDS011;49111;51.028;4.218;2024-02-14T04:10:38;11.50;;;5.80;;
62911;SDS011;49111;51.028;4.218;2024-02-14T04:13:04;18.58;;;6.40;;
62911;SDS011;49111;51.028;4.218;2024-02-14T04:15:31;10.73;;;5.38;;
62911;SDS011;49111;51.028;4.218;2024-02-14T04:17:57;11.38;;;5.93;;
62911;SDS011;49111;51.028;4.218;2024-02-14T04:20:25;10.02;;;6.18;;
62911;SDS011;49111;51.028;4.218;2024-02-14T04:22:50;13.10;;;6.03;;
62911;SDS011;49111;51.028;4.218;2024-02-14T04:25:16;9.88;;;5.78;;
62911;SDS011;49111;51.028;4.218;2024-02-14T04:27:43;10.98;;;6.50;;
62911;SDS011;49111;51.028;4.218;2024-02-14T04:30:09;9.13;;;5.43;;
62911;SDS011;49111;51.028;4.218;2024-02-14T04:32:35;10.55;;;6.53;;
62911;SDS011;49111;51.028;4.218;2024-02-14T04:35:01;10.45;;;6.72;;
62911;SDS011;49111;51.028;4.218;2024-02-14T04:37:27;32.83;;;6.65;;
62911;SDS011;49111;51.028;4.218;2024-02-14T04:39:54;9.48;;;6.20;;
62911;SDS011;49111;51.028;4.218;2024-02-14T04:42:20;13.68;;;6.25;;
62911;SDS011;49111;51.028;4.218;2024-02-14T04:44:46;10.23;;;6.03;;
62911;SDS011;49111;51.028;4.218;2024-02-14T04:47:12;12.68;;;5.85;;
62911;SDS011;49111;51.028;4.218;2024-02-14T04:49:38;10.30;;;6.22;;
62911;SDS011;49111;51.028;4.218;2024-02-14T04:52:04;10.05;;;6.25;;
62911;SDS011;49111;51.028;4.218;2024-02-14T04:54:30;9.48;;;5.63;;
62911;SDS011;49111;51.028;4.218;2024-02-14T04:56:56;8.85;;;5.30;;
62911;SDS011;49111;51.028;4.218;2024-02-14T04:59:21;10.57;;;6.03;;
62911;SDS011;49111;51.028;4.218;2024-02-14T05:01:47;9.05;;;6.18;;
62911;SDS011;49111;51.028;4.218;2024-02-14T05:04:13;15.35;;;5.65;;
62911;SDS011;49111;51.028;4.218;2024-02-14T05:06:39;10.48;;;5.35;;
62911;SDS011;49111;51.028;4.218;2024-02-14T05:09:07;10.45;;;5.53;;
62911;SDS011;49111;51.028;4.218;2024-02-14T05:11:33;11.77;;;6.00;;
62911;SDS011;49111;51.028;4.218;2024-02-14T05:13:58;10.52;;;6.30;;
62911;SDS011;49111;51.028;4.218;2024-02-14T05:16:26;9.48;;;6.10;;
62911;SDS011;49111;51.028;4.218;2024-02-14T05:18:53;11.43;;;5.90;;
62911;SDS011;49111;51.028;4.218;2024-02-14T05:21:21;8.00;;;5.53;;
62911;SDS011;49111;51.028;4.218;2024-02-14T05:23:47;8.60;;;5.47;;
62911;SDS011;49111;51.028;4.218;2024-02-14T05:26:13;8.80;;;5.78;;
62911;SDS011;49111;51.028;4.218;2024-02-14T05:28:39;10.40;;;7.03;;
62911;SDS011;49111;51.028;4.218;2024-02-14T05:31:05;14.98;;;6.78;;
62911;SDS011;49111;51.028;4.218;2024-02-14T05:33:31;10.90;;;6.57;;
62911;SDS011;49111;51.028;4.218;2024-02-14T05:35:57;13.32;;;5.72;;
62911;SDS011;49111;51.028;4.218;2024-02-14T05:38:22;10.23;;;5.35;;
62911;SDS011;49111;51.028;4.218;2024-02-14T05:40:49;9.25;;;5.50;;
62911;SDS011;49111;51.028;4.218;2024-02-14T05:43:15;10.98;;;5.40;;
62911;SDS011;49111;51.028;4.218;2024-02-14T05:45:43;9.43;;;5.53;;
62911;SDS011;49111;51.028;4.218;2024-02-14T05:48:10;9.98;;;6.13;;
62911;SDS011;49111;51.028;4.218;2024-02-14T05:50:36;9.77;;;5.30;;
62911;SDS011;49111;51.028;4.218;2024-02-14T05:53:02;9.43;;;4.97;;
62911;SDS011;49111;51.028;4.218;2024-02-14T05:55:29;10.45;;;5.03;;
62911;SDS011;49111;51.028;4.218;2024-02-14T05:57:55;9.40;;;5.95;;
62911;SDS011;49111;51.028;4.218;2024-02-14T06:00:22;12.30;;;5.78;;
62911;SDS011;49111;51.028;4.218;2024-02-14T06:02:48;13.27;;;5.35;;
62911;SDS011;49111;51.028;4.218;2024-02-14T06:05:15;7.25;;;4.80;;
62911;SDS011;49111;51.028;4.218;2024-02-14T06:07:41;11.48;;;6.07;;
62911;SDS011;49111;51.028;4.218;2024-02-14T06:10:10;9.30;;;5.15;;
62911;SDS011;49111;51.028;4.218;2024-02-14T06:12:36;9.45;;;5.80;;
62911;SDS011;49111;51.028;4.218;2024-02-14T06:15:02;10.32;;;5.80;;
62911;SDS011;49111;51.028;4.218;2024-02-14T06:17:28;10.45;;;5.47;;
62911;SDS011;49111;51.028;4.218;2024-02-14T06:19:54;10.35;;;5.32;;
62911;SDS011;49111;51.028;4.218;2024-02-14T06:22:20;13.52;;;5.65;;
62911;SDS011;49111;51.028;4.218;2024-02-14T06:24:46;8.13;;;5.13;;
62911;SDS011;49111;51.028;4.218;2024-02-14T06:27:16;11.65;;;5.75;;
62911;SDS011;49111;51.028;4.218;2024-02-14T06:29:45;10.15;;;5.82;;
62911;SDS011;49111;51.028;4.218;2024-02-14T06:32:13;10.63;;;5.75;;
62911;SDS011;49111;51.028;4.218;2024-02-14T06:34:39;9.43;;;5.75;;
62911;SDS011;49111;51.028;4.218;2024-02-14T06:37:05;9.98;;;5.97;;
62911;SDS011;49111;51.028;4.218;2024-02-14T06:39:31;10.48;;;5.85;;
62911;SDS011;49111;51.028;4.218;2024-02-14T06:41:57;11.13;;;6.63;;
62911;SDS011;49111;51.028;4.218;2024-02-14T06:44:23;9.48;;;5.03;;
62911;SDS011;49111;51.028;4.218;2024-02-14T06:46:49;9.73;;;5.70;;
62911;SDS011;49111;51.028;4.218;2024-02-14T06:49:15;15.55;;;6.20;;
62911;SDS011;49111;51.028;4.218;2024-02-14T06:51:41;11.40;;;6.00;;
62911;SDS011;49111;51.028;4.218;2024-02-14T06:54:07;12.07;;;5.85;;
62911;SDS011;49111;51.028;4.218;2024-02-14T06:56:33;10.02;;;5.53;;
62911;SDS011;49111;51.028;4.218;2024-02-14T06:59:00;13.05;;;5.82;;
62911;SDS011;49111;51.028;4.218;2024-02-14T07:01:27;10.38;;;5.22;;
62911;SDS011;49111;51.028;4.218;2024-02-14T07:03:54;10.85;;;5.30;;
62911;SDS011;49111;51.028;4.218;2024-02-14T07:06:20;10.98;;;6.18;;
62911;SDS011;49111;51.028;4.218;2024-02-14T07:08:45;11.57;;;5.72;;
62911;SDS011;49111;51.028;4.218;2024-02-14T07:11:13;8.57;;;5.03;;
62911;SDS011;49111;51.028;4.218;2024-02-14T07:13:38;11.48;;;5.82;;
62911;SDS011;49111;51.028;4.218;2024-02-14T07:16:04;10.07;;;5.22;;
62911;SDS011;49111;51.028;4.218;2024-02-14T07:18:31;10.32;;;5.38;;
62911;SDS011;49111;51.028;4.218;2024-02-14T07:20:56;9.98;;;6.63;;
62911;SDS011;49111;51.028;4.218;2024-02-14T07:23:22;11.70;;;6.35;;
62911;SDS011;49111;51.028;4.218;2024-02-14T07:25:48;11.85;;;5.70;;
62911;SDS011;49111;51.028;4.218;2024-02-14T07:28:14;10.90;;;5.45;;
62911;SDS011;49111;51.028;4.218;2024-02-14T07:30:40;10.80;;;5.40;;
62911;SDS011;49111;51.028;4.218;2024-02-14T07:33:06;13.63;;;6.07;;
62911;SDS011;49111;51.028;4.218;2024-02-14T07:35:33;12.23;;;5.55;;
62911;SDS011;49111;51.028;4.218;2024-02-14T07:37:59;12.70;;;5.70;;
62911;SDS011;49111;51.028;4.218;2024-02-14T07:40:24;10.32;;;5.88;;
62911;SDS011;49111;51.028;4.218;2024-02-14T07:42:52;9.63;;;5.18;;
62911;SDS011;49111;51.028;4.218;2024-02-14T07:45:18;12.63;;;7.03;;
62911;SDS011;49111;51.028;4.218;2024-02-14T07:47:44;9.07;;;5.65;;
62911;SDS011;49111;51.028;4.218;2024-02-14T07:50:09;17.00;;;6.13;;
62911;SDS011;49111;51.028;4.218;2024-02-14T07:52:36;7.28;;;5.22;;
62911;SDS011;49111;51.028;4.218;2024-02-14T07:55:02;11.48;;;5.80;;
62911;SDS011;49111;51.028;4.218;2024-02-14T07:57:27;14.70;;;6.47;;
62911;SDS011;49111;51.028;4.218;2024-02-14T07:59:53;10.52;;;5.68;;
62911;SDS011;49111;51.028;4.218;2024-02-14T08:02:19;11.15;;;5.80;;
62911;SDS011;49111;51.028;4.218;2024-02-14T08:04:46;12.82;;;5.43;;
62911;SDS011;49111;51.028;4.218;2024-02-14T08:07:12;10.93;;;5.50;;
62911;SDS011;49111;51.028;4.218;2024-02-14T08:09:37;13.23;;;6.47;;
62911;SDS011;49111;51.028;4.218;2024-02-14T08:12:05;12.85;;;6.60;;
62911;SDS011;49111;51.028;4.218;2024-02-14T08:14:31;12.68;;;6.15;;
62911;SDS011;49111;51.028;4.218;2024-02-14T08:16:57;10.45;;;6.78;;
62911;SDS011;49111;51.028;4.218;2024-02-14T08:19:23;11.90;;;6.15;;
62911;SDS011;49111;51.028;4.218;2024-02-14T08:21:49;12.00;;;6.60;;
62911;SDS011;49111;51.028;4.218;2024-02-14T08:24:15;9.90;;;5.53;;
62911;SDS011;49111;51.028;4.218;2024-02-14T08:26:42;9.57;;;6.10;;
62911;SDS011;49111;51.028;4.218;2024-02-14T08:29:08;11.93;;;5.50;;
62911;SDS011;49111;51.028;4.218;2024-02-14T08:31:36;11.65;;;6.57;;
62911;SDS011;49111;51.028;4.218;2024-02-14T08:34:02;10.63;;;5.97;;
62911;SDS011;49111;51.028;4.218;2024-02-14T08:36:28;14.20;;;6.88;;
62911;SDS011;49111;51.028;4.218;2024-02-14T08:38:54;11.35;;;5.38;;
62911;SDS011;49111;51.028;4.218;2024-02-14T08:41:20;10.93;;;6.60;;
62911;SDS011;49111;51.028;4.218;2024-02-14T08:43:46;16.90;;;7.72;;
62911;SDS011;49111;51.028;4.218;2024-02-14T08:46:12;9.93;;;5.50;;
62911;SDS011;49111;51.028;4.218;2024-02-14T08:48:38;16.77;;;6.72;;
62911;SDS011;49111;51.028;4.218;2024-02-14T08:51:11;12.82;;;6.57;;
62911;SDS011;49111;51.028;4.218;2024-02-14T08:53:38;11.05;;;6.28;;
62911;SDS011;49111;51.028;4.218;2024-02-14T08:56:04;13.13;;;6.20;;
62911;SDS011;49111;51.028;4.218;2024-02-14T08:58:30;9.77;;;5.30;;
62911;SDS011;49111;51.028;4.218;2024-02-14T09:00:56;10.43;;;5.47;;
62911;SDS011;49111;51.028;4.218;2024-02-14T09:03:23;10.70;;;5.63;;
62911;SDS011;49111;51.028;4.218;2024-02-14T09:05:49;11.48;;;5.47;;
62911;SDS011;49111;51.028;4.218;2024-02-14T09:08:15;12.02;;;5.70;;
62911;SDS011;49111;51.028;4.218;2024-02-14T09:10:41;9.50;;;5.32;;
62911;SDS011;49111;51.028;4.218;2024-02-14T09:13:07;9.88;;;5.63;;
62911;SDS011;49111;51.028;4.218;2024-02-14T09:15:33;10.50;;;5.28;;
62911;SDS011;49111;51.028;4.218;2024-02-14T09:17:59;10.60;;;5.82;;
62911;SDS011;49111;51.028;4.218;2024-02-14T09:20:26;11.43;;;6.35;;
62911;SDS011;49111;51.028;4.218;2024-02-14T09:22:52;12.38;;;6.05;;
62911;SDS011;49111;51.028;4.218;2024-02-14T09:25:19;10.57;;;5.57;;
62911;SDS011;49111;51.028;4.218;2024-02-14T09:27:44;12.18;;;6.13;;
62911;SDS011;49111;51.028;4.218;2024-02-14T09:30:13;11.50;;;5.45;;
62911;SDS011;49111;51.028;4.218;2024-02-14T09:32:39;8.90;;;5.25;;
62911;SDS011;49111;51.028;4.218;2024-02-14T09:35:05;7.43;;;5.40;;
62911;SDS011;49111;51.028;4.218;2024-02-14T09:37:32;10.93;;;5.65;;
62911;SDS011;49111;51.028;4.218;2024-02-14T09:39:58;10.85;;;6.25;;
62911;SDS011;49111;51.028;4.218;2024-02-14T09:42:27;10.68;;;5.55;;
62911;SDS011;49111;51.028;4.218;2024-02-14T09:45:04;9.45;;;5.28;;
62911;SDS011;49111;51.028;4.218;2024-02-14T09:47:32;11.00;;;4.90;;
62911;SDS011;49111;51.028;4.218;2024-02-14T09:49:59;9.40;;;5.72;;
62911;SDS011;49111;51.028;4.218;2024-02-14T09:52:26;10.20;;;5.93;;
62911;SDS011;49111;51.028;4.218;2024-02-14T09:54:53;8.05;;;5.35;;
62911;SDS011;49111;51.028;4.218;2024-02-14T09:57:20;10.50;;;5.15;;
62911;SDS011;49111;51.028;4.218;2024-02-14T09:59:48;7.70;;;4.72;;
62911;SDS011;49111;51.028;4.218;2024-02-14T10:02:16;11.07;;;5.95;;
62911;SDS011;49111;51.028;4.218;2024-02-14T10:04:43;8.85;;;5.57;;
62911;SDS011;49111;51.028;4.218;2024-02-14T10:07:08;8.38;;;4.63;;
62911;SDS011;49111;51.028;4.218;2024-02-14T10:09:41;8.80;;;5.10;;
62911;SDS011;49111;51.028;4.218;2024-02-14T10:14:37;7.38;;;4.72;;
62911;SDS011;49111;51.028;4.218;2024-02-14T10:17:05;5.80;;;4.13;;
62911;SDS011;49111;51.028;4.218;2024-02-14T10:19:35;7.43;;;4.13;;
62911;SDS011;49111;51.028;4.218;2024-02-14T10:22:01;6.95;;;3.75;;
62911;SDS011;49111;51.028;4.218;2024-02-14T10:24:30;8.35;;;3.72;;
62911;SDS011;49111;51.028;4.218;2024-02-14T10:26:58;7.97;;;4.28;;
62911;SDS011;49111;51.028;4.218;2024-02-14T10:29:25;5.72;;;3.63;;
62911;SDS011;49111;51.028;4.218;2024-02-14T10:31:54;10.07;;;4.53;;
62911;SDS011;49111;51.028;4.218;2024-02-14T10:34:24;7.93;;;3.97;;
62911;SDS011;49111;51.028;4.218;2024-02-14T10:36:52;6.88;;;4.07;;
62911;SDS011;49111;51.028;4.218;2024-02-14T10:39:21;9.85;;;4.20;;
62911;SDS011;49111;51.028;4.218;2024-02-14T10:41:50;7.45;;;3.72;;
62911;SDS011;49111;51.028;4.218;2024-02-14T10:44:16;5.57;;;3.50;;
62911;SDS011;49111;51.028;4.218;2024-02-14T10:46:42;7.72;;;3.92;;
62911;SDS011;49111;51.028;4.218;2024-02-14T10:49:11;7.60;;;4.07;;
62911;SDS011;49111;51.028;4.218;2024-02-14T10:51:41;5.97;;;3.80;;
62911;SDS011;49111;51.028;4.218;2024-02-14T10:54:11;6.47;;;4.07;;
62911;SDS011;49111;51.028;4.218;2024-02-14T10:56:38;6.45;;;3.90;;
62911;SDS011;49111;51.028;4.218;2024-02-14T10:59:06;7.22;;;4.30;;
62911;SDS011;49111;51.028;4.218;2024-02-14T11:01:36;6.13;;;3.88;;
62911;SDS011;49111;51.028;4.218;2024-02-14T11:04:02;4.68;;;3.33;;
62911;SDS011;49111;51.028;4.218;2024-02-14T11:06:30;5.55;;;4.03;;
62911;SDS011;49111;51.028;4.218;2024-02-14T11:09:02;7.03;;;3.83;;
62911;SDS011;49111;51.028;4.218;2024-02-14T11:11:32;6.82;;;5.10;;
62911;SDS011;49111;51.028;4.218;2024-02-14T11:13:59;5.38;;;3.92;;
62911;SDS011;49111;51.028;4.218;2024-02-14T11:16:25;5.28;;;3.28;;
62911;SDS011;49111;51.028;4.218;2024-02-14T11:18:53;5.82;;;4.00;;
62911;SDS011;49111;51.028;4.218;2024-02-14T11:21:31;8.95;;;3.75;;
62911;SDS011;49111;51.028;4.218;2024-02-14T11:24:05;6.80;;;4.28;;
62911;SDS011;49111;51.028;4.218;2024-02-14T11:26:46;8.00;;;4.75;;
62911;SDS011;49111;51.028;4.218;2024-02-14T11:29:16;6.45;;;4.25;;
62911;SDS011;49111;51.028;4.218;2024-02-14T11:31:44;6.05;;;3.50;;
62911;SDS011;49111;51.028;4.218;2024-02-14T11:34:13;9.70;;;4.22;;
62911;SDS011;49111;51.028;4.218;2024-02-14T11:36:44;8.35;;;4.50;;
62911;SDS011;49111;51.028;4.218;2024-02-14T11:39:10;7.80;;;4.65;;
62911;SDS011;49111;51.028;4.218;2024-02-14T11:41:40;9.27;;;4.05;;
62911;SDS011;49111;51.028;4.218;2024-02-14T11:44:08;5.75;;;4.25;;
62911;SDS011;49111;51.028;4.218;2024-02-14T11:46:35;7.18;;;4.68;;
62911;SDS011;49111;51.028;4.218;2024-02-14T11:49:02;7.90;;;4.60;;
62911;SDS011;49111;51.028;4.218;2024-02-14T11:51:31;9.00;;;5.13;;
62911;SDS011;49111;51.028;4.218;2024-02-14T11:54:00;8.68;;;5.38;;
62911;SDS011;49111;51.028;4.218;2024-02-14T11:56:37;8.15;;;5.35;;
62911;SDS011;49111;51.028;4.218;2024-02-14T11:59:03;11.98;;;6.22;;
62911;SDS011;49111;51.028;4.218;2024-02-14T12:01:34;8.43;;;4.72;;
62911;SDS011;49111;51.028;4.218;2024-02-14T12:04:01;8.13;;;5.05;;
62911;SDS011;49111;51.028;4.218;2024-02-14T12:06:29;10.85;;;5.07;;
62911;SDS011;49111;51.028;4.218;2024-02-14T12:09:05;10.85;;;5.13;;
62911;SDS011;49111;51.028;4.218;2024-02-14T12:11:34;10.38;;;5.38;;
62911;SDS011;49111;51.028;4.218;2024-02-14T12:14:07;14.43;;;5.38;;
62911;SDS011;49111;51.028;4.218;2024-02-14T12:16:36;13.63;;;5.35;;
62911;SDS011;49111;51.028;4.218;2024-02-14T12:19:08;8.07;;;4.55;;
62911;SDS011;49111;51.028;4.218;2024-02-14T12:21:41;9.90;;;5.05;;
62911;SDS011;49111;51.028;4.218;2024-02-14T12:24:10;8.77;;;4.57;;
62911;SDS011;49111;51.028;4.218;2024-02-14T12:26:39;6.15;;;3.55;;
62911;SDS011;49111;51.028;4.218;2024-02-14T12:29:06;8.55;;;4.60;;
62911;SDS011;49111;51.028;4.218;2024-02-14T12:31:34;9.43;;;4.82;;
62911;SDS011;49111;51.028;4.218;2024-02-14T12:34:02;6.82;;;4.35;;
62911;SDS011;49111;51.028;4.218;2024-02-14T12:36:30;8.70;;;5.00;;
62911;SDS011;49111;51.028;4.218;2024-02-14T12:39:03;7.85;;;3.90;;
62911;SDS011;49111;51.028;4.218;2024-02-14T12:41:29;10.95;;;5.75;;
62911;SDS011;49111;51.028;4.218;2024-02-14T12:43:56;10.50;;;5.30;;
62911;SDS011;49111;51.028;4.218;2024-02-14T12:46:23;6.82;;;4.35;;
62911;SDS011;49111;51.028;4.218;2024-02-14T12:48:49;9.90;;;4.43;;
62911;SDS011;49111;51.028;4.218;2024-02-14T12:51:15;10.18;;;4.43;;
62911;SDS011;49111;51.028;4.218;2024-02-14T12:53:42;9.23;;;4.35;;
62911;SDS011;49111;51.028;4.218;2024-02-14T12:56:08;8.25;;;4.60;;
62911;SDS011;49111;51.028;4.218;2024-02-14T12:58:33;7.97;;;5.00;;
62911;SDS011;49111;51.028;4.218;2024-02-14T13:01:00;9.05;;;4.50;;
62911;SDS011;49111;51.028;4.218;2024-02-14T13:03:26;8.43;;;4.53;;
62911;SDS011;49111;51.028;4.218;2024-02-14T13:05:54;9.20;;;4.13;;
62911;SDS011;49111;51.028;4.218;2024-02-14T13:08:20;9.52;;;4.00;;
62911;SDS011;49111;51.028;4.218;2024-02-14T13:10:46;8.82;;;3.95;;
62911;SDS011;49111;51.028;4.218;2024-02-14T13:13:12;6.53;;;4.13;;
62911;SDS011;49111;51.028;4.218;2024-02-14T13:15:39;7.78;;;3.88;;
62911;SDS011;49111;51.028;4.218;2024-02-14T13:18:06;7.35;;;4.03;;
62911;SDS011;49111;51.028;4.218;2024-02-14T13:20:31;10.48;;;4.72;;
62911;SDS011;49111;51.028;4.218;2024-02-14T13:22:58;8.02;;;3.88;;
62911;SDS011;49111;51.028;4.218;2024-02-14T13:25:24;6.28;;;3.45;;
62911;SDS011;49111;51.028;4.218;2024-02-14T13:27:50;7.00;;;4.05;;
62911;SDS011;49111;51.028;4.218;2024-02-14T13:30:16;8.23;;;4.10;;
62911;SDS011;49111;51.028;4.218;2024-02-14T13:32:43;6.85;;;3.88;;
62911;SDS011;49111;51.028;4.218;2024-02-14T13:35:10;6.95;;;3.72;;
62911;SDS011;49111;51.028;4.218;2024-02-14T13:37:39;8.18;;;3.80;;
62911;SDS011;49111;51.028;4.218;2024-02-14T13:40:05;8.10;;;3.72;;
62911;SDS011;49111;51.028;4.218;2024-02-14T13:42:38;5.97;;;4.13;;
62911;SDS011;49111;51.028;4.218;2024-02-14T13:45:05;5.55;;;3.88;;
62911;SDS011;49111;51.028;4.218;2024-02-14T13:47:36;4.57;;;3.17;;
62911;SDS011;49111;51.028;4.218;2024-02-14T13:50:05;5.40;;;3.25;;
62911;SDS011;49111;51.028;4.218;2024-02-14T13:52:32;6.68;;;3.50;;
62911;SDS011;49111;51.028;4.218;2024-02-14T13:54:59;7.10;;;3.65;;
62911;SDS011;49111;51.028;4.218;2024-02-14T13:57:27;6.07;;;3.70;;
62911;SDS011;49111;51.028;4.218;2024-02-14T13:59:54;5.53;;;3.30;;
62911;SDS011;49111;51.028;4.218;2024-02-14T14:02:20;6.80;;;3.10;;
62911;SDS011;49111;51.028;4.218;2024-02-14T14:04:46;5.50;;;3.03;;
62911;SDS011;49111;51.028;4.218;2024-02-14T14:07:14;5.95;;;3.63;;
62911;SDS011;49111;51.028;4.218;2024-02-14T14:09:40;7.43;;;3.00;;
62911;SDS011;49111;51.028;4.218;2024-02-14T14:12:06;4.35;;;3.03;;
62911;SDS011;49111;51.028;4.218;2024-02-14T14:14:32;7.35;;;3.13;;
62911;SDS011;49111;51.028;4.218;2024-02-14T14:16:58;7.53;;;2.92;;
62911;SDS011;49111;51.028;4.218;2024-02-14T14:19:24;6.03;;;2.88;;
62911;SDS011;49111;51.028;4.218;2024-02-14T14:21:49;6.15;;;3.15;;
62911;SDS011;49111;51.028;4.218;2024-02-14T14:24:15;6.13;;;3.15;;
62911;SDS011;49111;51.028;4.218;2024-02-14T14:26:41;6.78;;;3.63;;
62911;SDS011;49111;51.028;4.218;2024-02-14T14:29:08;7.78;;;4.00;;
62911;SDS011;49111;51.028;4.218;2024-02-14T14:31:34;6.18;;;3.30;;
62911;SDS011;49111;51.028;4.218;2024-02-14T14:34:01;5.50;;;3.28;;
62911;SDS011;49111;51.028;4.218;2024-02-14T14:36:27;5.97;;;3.33;;
62911;SDS011;49111;51.028;4.218;2024-02-14T14:38:52;7.90;;;3.67;;
62911;SDS011;49111;51.028;4.218;2024-02-14T14:41:20;6.00;;;3.55;;
62911;SDS011;49111;51.028;4.218;2024-02-14T14:43:46;9.25;;;3.67;;